sensor_id;sensor_type;location;lat;lon;timestamp;pressure;altitude;pressure_sealevel;temperature;humidity
62946;BME280;52164;52.212;-1.010;2023-04-26T00:01:39;100979.70;;;6.21;55.64
62946;BME280;52164;52.212;-1.010;2023-04-26T00:04:04;100975.53;;;6.17;56.01
62946;BME280;52164;52.212;-1.010;2023-04-26T00:06:29;100972.79;;;6.13;56.77
62946;BME280;52164;52.212;-1.010;2023-04-26T00:08:55;100971.42;;;6.09;57.05
62946;BME280;52164;52.212;-1.010;2023-04-26T00:11:20;100969.73;;;6.05;57.13
62946;BME280;52164;52.212;-1.010;2023-04-26T00:13:48;100963.79;;;6.01;57.07
62946;BME280;52164;52.212;-1.010;2023-04-26T00:16:14;100964.75;;;5.97;56.93
62946;BME280;52164;52.212;-1.010;2023-04-26T00:18:40;100961.61;;;5.94;56.99
62946;BME280;52164;52.212;-1.010;2023-04-26T00:21:06;100959.23;;;5.90;57.04
62946;BME280;52164;52.212;-1.010;2023-04-26T00:23:31;100958.80;;;5.87;57.05
62946;BME280;52164;52.212;-1.010;2023-04-26T00:25:57;100961.34;;;5.83;57.22
62946;BME280;52164;52.212;-1.010;2023-04-26T00:31:13;100955.83;;;5.76;57.38
62946;BME280;52164;52.212;-1.010;2023-04-26T00:33:39;100953.60;;;5.72;57.21
62946;BME280;52164;52.212;-1.010;2023-04-26T00:36:04;100950.88;;;5.69;57.30
62946;BME280;52164;52.212;-1.010;2023-04-26T00:38:30;100951.31;;;5.66;57.59
62946;BME280;52164;52.212;-1.010;2023-04-26T00:40:55;100954.61;;;5.63;57.74
62946;BME280;52164;52.212;-1.010;2023-04-26T00:43:20;100954.94;;;5.62;57.57
62946;BME280;52164;52.212;-1.010;2023-04-26T00:45:46;100960.90;;;5.60;58.01
62946;BME280;52164;52.212;-1.010;2023-04-26T00:48:11;100960.67;;;5.58;57.89
62946;BME280;52164;52.212;-1.010;2023-04-26T00:50:37;100954.61;;;5.57;58.05
62946;BME280;52164;52.212;-1.010;2023-04-26T00:53:02;100950.46;;;5.54;58.42
62946;BME280;52164;52.212;-1.010;2023-04-26T00:55:27;100948.13;;;5.52;58.39
62946;BME280;52164;52.212;-1.010;2023-04-26T00:57:53;100946.27;;;5.49;58.56
62946;BME280;52164;52.212;-1.010;2023-04-26T01:00:19;100947.55;;;5.44;58.93
62946;BME280;52164;52.212;-1.010;2023-04-26T01:02:45;100942.65;;;5.40;59.09
62946;BME280;52164;52.212;-1.010;2023-04-26T01:05:11;100942.98;;;5.40;59.33
62946;BME280;52164;52.212;-1.010;2023-04-26T01:07:36;100938.52;;;5.38;59.51
62946;BME280;52164;52.212;-1.010;2023-04-26T01:10:03;100940.48;;;5.38;59.39
62946;BME280;52164;52.212;-1.010;2023-04-26T01:12:30;100940.13;;;5.38;59.38
62946;BME280;52164;52.212;-1.010;2023-04-26T01:14:58;100940.16;;;5.40;59.18
62946;BME280;52164;52.212;-1.010;2023-04-26T01:17:23;100939.15;;;5.41;59.18
62946;BME280;52164;52.212;-1.010;2023-04-26T01:19:49;100939.32;;;5.41;59.75
62946;BME280;52164;52.212;-1.010;2023-04-26T01:22:15;100933.39;;;5.38;60.24
62946;BME280;52164;52.212;-1.010;2023-04-26T01:24:42;100930.13;;;5.35;60.55
62946;BME280;52164;52.212;-1.010;2023-04-26T01:27:08;100932.16;;;5.32;60.58
62946;BME280;52164;52.212;-1.010;2023-04-26T01:29:33;100935.27;;;5.29;61.07
62946;BME280;52164;52.212;-1.010;2023-04-26T01:32:02;100932.54;;;5.26;60.79
62946;BME280;52164;52.212;-1.010;2023-04-26T01:34:28;100929.27;;;5.23;61.07
62946;BME280;52164;52.212;-1.010;2023-04-26T01:36:53;100923.86;;;5.21;61.06
62946;BME280;52164;52.212;-1.010;2023-04-26T01:39:19;100920.98;;;5.18;61.26
62946;BME280;52164;52.212;-1.010;2023-04-26T01:41:44;100922.67;;;5.16;61.10
62946;BME280;52164;52.212;-1.010;2023-04-26T01:44:09;100923.30;;;5.13;61.12
62946;BME280;52164;52.212;-1.010;2023-04-26T01:46:35;100928.55;;;5.11;61.39
62946;BME280;52164;52.212;-1.010;2023-04-26T01:49:00;100925.67;;;5.09;61.57
62946;BME280;52164;52.212;-1.010;2023-04-26T01:51:25;100924.06;;;5.09;61.77
62946;BME280;52164;52.212;-1.010;2023-04-26T01:53:51;100927.03;;;5.07;61.92
62946;BME280;52164;52.212;-1.010;2023-04-26T01:56:17;100931.06;;;5.06;61.75
62946;BME280;52164;52.212;-1.010;2023-04-26T01:58:42;100939.90;;;5.05;62.03
62946;BME280;52164;52.212;-1.010;2023-04-26T02:01:08;100937.91;;;5.04;62.14
62946;BME280;52164;52.212;-1.010;2023-04-26T02:03:33;100934.52;;;5.03;62.38
62946;BME280;52164;52.212;-1.010;2023-04-26T02:05:59;100926.89;;;5.02;62.25
62946;BME280;52164;52.212;-1.010;2023-04-26T02:08:24;100927.20;;;5.01;62.53
62946;BME280;52164;52.212;-1.010;2023-04-26T02:10:49;100931.02;;;4.98;62.37
62946;BME280;52164;52.212;-1.010;2023-04-26T02:13:14;100928.34;;;4.98;62.10
62946;BME280;52164;52.212;-1.010;2023-04-26T02:15:44;100928.13;;;4.96;62.13
62946;BME280;52164;52.212;-1.010;2023-04-26T02:18:10;100925.95;;;4.94;61.88
62946;BME280;52164;52.212;-1.010;2023-04-26T02:20:35;100925.70;;;4.92;62.24
62946;BME280;52164;52.212;-1.010;2023-04-26T02:23:02;100922.45;;;4.89;62.18
62946;BME280;52164;52.212;-1.010;2023-04-26T02:25:27;100926.31;;;4.88;62.45
62946;BME280;52164;52.212;-1.010;2023-04-26T02:27:52;100929.05;;;4.85;62.42
62946;BME280;52164;52.212;-1.010;2023-04-26T02:30:17;100930.55;;;4.83;62.67
62946;BME280;52164;52.212;-1.010;2023-04-26T02:32:45;100932.09;;;4.81;62.90
62946;BME280;52164;52.212;-1.010;2023-04-26T02:35:10;100927.63;;;4.79;62.87
62946;BME280;52164;52.212;-1.010;2023-04-26T02:37:35;100927.22;;;4.78;62.69
62946;BME280;52164;52.212;-1.010;2023-04-26T02:40:01;100928.42;;;4.76;62.81
62946;BME280;52164;52.212;-1.010;2023-04-26T02:42:29;100923.59;;;4.74;63.00
62946;BME280;52164;52.212;-1.010;2023-04-26T02:44:55;100922.40;;;4.70;63.30
62946;BME280;52164;52.212;-1.010;2023-04-26T02:47:20;100920.99;;;4.65;63.56
62946;BME280;52164;52.212;-1.010;2023-04-26T02:49:45;100919.60;;;4.59;63.54
62946;BME280;52164;52.212;-1.010;2023-04-26T02:52:10;100928.15;;;4.56;63.26
62946;BME280;52164;52.212;-1.010;2023-04-26T02:54:36;100931.84;;;4.55;63.57
62946;BME280;52164;52.212;-1.010;2023-04-26T02:57:01;100928.48;;;4.55;63.67
62946;BME280;52164;52.212;-1.010;2023-04-26T02:59:26;100932.38;;;4.55;63.81
62946;BME280;52164;52.212;-1.010;2023-04-26T03:01:52;100933.03;;;4.54;64.28
62946;BME280;52164;52.212;-1.010;2023-04-26T03:04:17;100929.83;;;4.53;64.35
62946;BME280;52164;52.212;-1.010;2023-04-26T03:06:42;100931.73;;;4.52;64.65
62946;BME280;52164;52.212;-1.010;2023-04-26T03:09:07;100930.10;;;4.50;64.49
62946;BME280;52164;52.212;-1.010;2023-04-26T03:11:33;100927.09;;;4.50;64.50
62946;BME280;52164;52.212;-1.010;2023-04-26T03:13:58;100928.35;;;4.50;64.87
62946;BME280;52164;52.212;-1.010;2023-04-26T03:16:26;100932.43;;;4.52;65.21
62946;BME280;52164;52.212;-1.010;2023-04-26T03:18:52;100934.96;;;4.53;65.14
62946;BME280;52164;52.212;-1.010;2023-04-26T03:21:18;100935.89;;;4.55;65.27
62946;BME280;52164;52.212;-1.010;2023-04-26T03:23:43;100935.11;;;4.58;64.86
62946;BME280;52164;52.212;-1.010;2023-04-26T03:26:08;100932.70;;;4.60;64.98
62946;BME280;52164;52.212;-1.010;2023-04-26T03:28:34;100929.20;;;4.61;65.32
62946;BME280;52164;52.212;-1.010;2023-04-26T03:30:59;100928.20;;;4.63;65.26
62946;BME280;52164;52.212;-1.010;2023-04-26T03:33:25;100926.45;;;4.64;65.21
62946;BME280;52164;52.212;-1.010;2023-04-26T03:35:51;100920.30;;;4.65;65.39
62946;BME280;52164;52.212;-1.010;2023-04-26T03:38:16;100914.52;;;4.67;65.22
62946;BME280;52164;52.212;-1.010;2023-04-26T03:40:41;100907.34;;;4.69;65.38
62946;BME280;52164;52.212;-1.010;2023-04-26T03:43:07;100913.73;;;4.70;65.66
62946;BME280;52164;52.212;-1.010;2023-04-26T03:45:32;100912.86;;;4.70;65.19
62946;BME280;52164;52.212;-1.010;2023-04-26T03:47:57;100906.05;;;4.72;64.95
62946;BME280;52164;52.212;-1.010;2023-04-26T03:50:23;100899.20;;;4.74;64.96
62946;BME280;52164;52.212;-1.010;2023-04-26T03:52:48;100899.25;;;4.76;65.51
62946;BME280;52164;52.212;-1.010;2023-04-26T03:55:13;100898.24;;;4.79;65.21
62946;BME280;52164;52.212;-1.010;2023-04-26T03:57:39;100900.80;;;4.81;65.25
62946;BME280;52164;52.212;-1.010;2023-04-26T04:00:04;100898.35;;;4.82;65.41
62946;BME280;52164;52.212;-1.010;2023-04-26T04:02:35;100897.69;;;4.84;65.66
62946;BME280;52164;52.212;-1.010;2023-04-26T04:05:01;100895.24;;;4.85;65.33
62946;BME280;52164;52.212;-1.010;2023-04-26T04:07:26;100893.59;;;4.88;65.21
62946;BME280;52164;52.212;-1.010;2023-04-26T04:09:51;100890.12;;;4.91;65.16
62946;BME280;52164;52.212;-1.010;2023-04-26T04:12:16;100886.08;;;4.92;65.04
62946;BME280;52164;52.212;-1.010;2023-04-26T04:14:42;100881.86;;;4.93;64.74
62946;BME280;52164;52.212;-1.010;2023-04-26T04:17:07;100878.58;;;4.96;64.42
62946;BME280;52164;52.212;-1.010;2023-04-26T04:19:32;100880.04;;;4.97;64.56
62946;BME280;52164;52.212;-1.010;2023-04-26T04:21:57;100875.31;;;4.99;64.62
62946;BME280;52164;52.212;-1.010;2023-04-26T04:24:23;100875.99;;;4.98;64.79
62946;BME280;52164;52.212;-1.010;2023-04-26T04:26:48;100870.12;;;4.97;64.97
62946;BME280;52164;52.212;-1.010;2023-04-26T04:29:13;100866.40;;;4.97;65.09
62946;BME280;52164;52.212;-1.010;2023-04-26T04:31:39;100863.89;;;4.95;65.23
62946;BME280;52164;52.212;-1.010;2023-04-26T04:34:06;100863.16;;;4.95;65.10
62946;BME280;52164;52.212;-1.010;2023-04-26T04:36:32;100861.91;;;4.94;65.19
62946;BME280;52164;52.212;-1.010;2023-04-26T04:38:58;100861.24;;;4.95;65.00
62946;BME280;52164;52.212;-1.010;2023-04-26T04:41:23;100856.27;;;4.95;65.35
62946;BME280;52164;52.212;-1.010;2023-04-26T04:43:49;100858.20;;;4.94;65.73
62946;BME280;52164;52.212;-1.010;2023-04-26T04:46:15;100855.73;;;4.94;65.64
62946;BME280;52164;52.212;-1.010;2023-04-26T04:48:40;100855.58;;;4.95;65.50
62946;BME280;52164;52.212;-1.010;2023-04-26T04:51:06;100856.50;;;4.97;65.66
62946;BME280;52164;52.212;-1.010;2023-04-26T04:53:32;100859.89;;;4.98;65.44
62946;BME280;52164;52.212;-1.010;2023-04-26T04:55:57;100864.23;;;5.01;65.69
62946;BME280;52164;52.212;-1.010;2023-04-26T04:58:23;100866.40;;;5.03;65.71
62946;BME280;52164;52.212;-1.010;2023-04-26T05:00:48;100867.34;;;5.05;65.88
62946;BME280;52164;52.212;-1.010;2023-04-26T05:03:14;100863.12;;;5.06;65.94
62946;BME280;52164;52.212;-1.010;2023-04-26T05:05:40;100865.29;;;5.07;66.08
62946;BME280;52164;52.212;-1.010;2023-04-26T05:08:05;100867.10;;;5.08;66.27
62946;BME280;52164;52.212;-1.010;2023-04-26T05:10:33;100869.42;;;5.09;66.61
62946;BME280;52164;52.212;-1.010;2023-04-26T05:12:59;100871.25;;;5.12;66.45
62946;BME280;52164;52.212;-1.010;2023-04-26T05:15:25;100869.89;;;5.14;66.66
62946;BME280;52164;52.212;-1.010;2023-04-26T05:17:53;100865.88;;;5.16;66.83
62946;BME280;52164;52.212;-1.010;2023-04-26T05:20:20;100865.77;;;5.18;66.73
62946;BME280;52164;52.212;-1.010;2023-04-26T05:22:45;100871.30;;;5.20;66.56
62946;BME280;52164;52.212;-1.010;2023-04-26T05:25:10;100875.81;;;5.23;66.87
62946;BME280;52164;52.212;-1.010;2023-04-26T05:27:37;100880.14;;;5.26;66.72
62946;BME280;52164;52.212;-1.010;2023-04-26T05:30:03;100886.96;;;5.29;66.58
62946;BME280;52164;52.212;-1.010;2023-04-26T05:32:29;100890.48;;;5.36;66.40
62946;BME280;52164;52.212;-1.010;2023-04-26T05:34:57;100891.86;;;5.41;66.31
62946;BME280;52164;52.212;-1.010;2023-04-26T05:37:22;100890.43;;;5.46;66.56
62946;BME280;52164;52.212;-1.010;2023-04-26T05:39:47;100885.05;;;5.51;66.79
62946;BME280;52164;52.212;-1.010;2023-04-26T05:42:13;100888.47;;;5.53;66.62
62946;BME280;52164;52.212;-1.010;2023-04-26T05:44:38;100886.95;;;5.55;66.45
62946;BME280;52164;52.212;-1.010;2023-04-26T05:47:04;100886.48;;;5.58;66.50
62946;BME280;52164;52.212;-1.010;2023-04-26T05:49:29;100893.29;;;5.61;66.58
62946;BME280;52164;52.212;-1.010;2023-04-26T05:51:54;100894.11;;;5.65;66.64
62946;BME280;52164;52.212;-1.010;2023-04-26T05:54:20;100897.99;;;5.72;66.82
62946;BME280;52164;52.212;-1.010;2023-04-26T05:56:46;100897.22;;;5.76;66.72
62946;BME280;52164;52.212;-1.010;2023-04-26T05:59:11;100897.18;;;5.81;66.50
62946;BME280;52164;52.212;-1.010;2023-04-26T06:01:37;100895.34;;;5.86;66.42
62946;BME280;52164;52.212;-1.010;2023-04-26T06:04:03;100896.70;;;5.91;66.36
62946;BME280;52164;52.212;-1.010;2023-04-26T06:06:29;100899.16;;;5.96;66.41
62946;BME280;52164;52.212;-1.010;2023-04-26T06:08:54;100895.42;;;6.02;66.34
62946;BME280;52164;52.212;-1.010;2023-04-26T06:11:19;100896.77;;;6.07;66.35
62946;BME280;52164;52.212;-1.010;2023-04-26T06:13:45;100896.56;;;6.12;66.39
62946;BME280;52164;52.212;-1.010;2023-04-26T06:16:10;100897.23;;;6.18;66.00
62946;BME280;52164;52.212;-1.010;2023-04-26T06:18:35;100898.10;;;6.25;65.90
62946;BME280;52164;52.212;-1.010;2023-04-26T06:21:01;100894.52;;;6.31;65.78
62946;BME280;52164;52.212;-1.010;2023-04-26T06:23:26;100897.30;;;6.36;65.77
62946;BME280;52164;52.212;-1.010;2023-04-26T06:25:51;100900.09;;;6.42;65.59
62946;BME280;52164;52.212;-1.010;2023-04-26T06:28:17;100903.41;;;6.47;65.65
62946;BME280;52164;52.212;-1.010;2023-04-26T06:30:42;100900.31;;;6.52;65.40
62946;BME280;52164;52.212;-1.010;2023-04-26T06:33:07;100904.52;;;6.58;65.30
62946;BME280;52164;52.212;-1.010;2023-04-26T06:35:38;100905.92;;;6.65;65.37
62946;BME280;52164;52.212;-1.010;2023-04-26T06:38:04;100910.52;;;6.73;65.58
62946;BME280;52164;52.212;-1.010;2023-04-26T06:40:30;100917.45;;;6.81;65.32
62946;BME280;52164;52.212;-1.010;2023-04-26T06:42:55;100923.11;;;6.89;65.25
62946;BME280;52164;52.212;-1.010;2023-04-26T06:45:21;100921.52;;;6.97;65.03
62946;BME280;52164;52.212;-1.010;2023-04-26T06:47:46;100920.06;;;7.03;64.80
62946;BME280;52164;52.212;-1.010;2023-04-26T06:50:12;100922.35;;;7.11;64.59
62946;BME280;52164;52.212;-1.010;2023-04-26T06:52:37;100918.05;;;7.17;64.52
62946;BME280;52164;52.212;-1.010;2023-04-26T06:55:03;100913.58;;;7.24;64.78
62946;BME280;52164;52.212;-1.010;2023-04-26T06:57:28;100914.77;;;7.32;64.83
62946;BME280;52164;52.212;-1.010;2023-04-26T06:59:53;100914.04;;;7.39;64.43
62946;BME280;52164;52.212;-1.010;2023-04-26T07:02:19;100917.02;;;7.47;64.79
62946;BME280;52164;52.212;-1.010;2023-04-26T07:04:46;100913.45;;;7.55;64.62
62946;BME280;52164;52.212;-1.010;2023-04-26T07:07:12;100912.36;;;7.65;64.65
62946;BME280;52164;52.212;-1.010;2023-04-26T07:09:38;100908.63;;;7.74;64.22
62946;BME280;52164;52.212;-1.010;2023-04-26T07:12:03;100911.84;;;7.85;64.24
62946;BME280;52164;52.212;-1.010;2023-04-26T07:14:29;100914.15;;;7.94;63.40
62946;BME280;52164;52.212;-1.010;2023-04-26T07:16:54;100909.48;;;8.02;63.32
62946;BME280;52164;52.212;-1.010;2023-04-26T07:19:21;100903.80;;;8.14;63.18
62946;BME280;52164;52.212;-1.010;2023-04-26T07:21:48;100904.67;;;8.24;63.12
62946;BME280;52164;52.212;-1.010;2023-04-26T07:24:13;100904.27;;;8.32;62.42
62946;BME280;52164;52.212;-1.010;2023-04-26T07:26:39;100904.54;;;8.38;62.31
62946;BME280;52164;52.212;-1.010;2023-04-26T07:29:06;100895.25;;;8.46;61.86
62946;BME280;52164;52.212;-1.010;2023-04-26T07:31:31;100891.33;;;8.56;61.81
62946;BME280;52164;52.212;-1.010;2023-04-26T07:33:57;100888.78;;;8.66;61.67
62946;BME280;52164;52.212;-1.010;2023-04-26T07:36:24;100889.81;;;8.76;61.29
62946;BME280;52164;52.212;-1.010;2023-04-26T07:38:49;100886.88;;;8.83;61.24
62946;BME280;52164;52.212;-1.010;2023-04-26T07:41:14;100886.63;;;8.91;60.72
62946;BME280;52164;52.212;-1.010;2023-04-26T07:43:41;100885.12;;;8.99;59.71
62946;BME280;52164;52.212;-1.010;2023-04-26T07:46:07;100886.61;;;9.04;59.62
62946;BME280;52164;52.212;-1.010;2023-04-26T07:48:32;100881.67;;;9.09;59.85
62946;BME280;52164;52.212;-1.010;2023-04-26T07:51:05;100879.81;;;9.17;59.61
62946;BME280;52164;52.212;-1.010;2023-04-26T07:53:31;100881.84;;;9.22;59.12
62946;BME280;52164;52.212;-1.010;2023-04-26T07:55:56;100881.16;;;9.26;58.92
62946;BME280;52164;52.212;-1.010;2023-04-26T07:58:21;100885.63;;;9.27;59.30
62946;BME280;52164;52.212;-1.010;2023-04-26T08:00:47;100893.10;;;9.26;59.13
62946;BME280;52164;52.212;-1.010;2023-04-26T08:03:13;100894.29;;;9.21;58.63
62946;BME280;52164;52.212;-1.010;2023-04-26T08:05:39;100897.21;;;9.13;58.97
62946;BME280;52164;52.212;-1.010;2023-04-26T08:08:04;100896.42;;;9.05;58.41
62946;BME280;52164;52.212;-1.010;2023-04-26T08:10:30;100896.88;;;8.99;58.36
62946;BME280;52164;52.212;-1.010;2023-04-26T08:12:56;100903.77;;;8.95;58.43
62946;BME280;52164;52.212;-1.010;2023-04-26T08:15:21;100900.74;;;8.95;58.26
62946;BME280;52164;52.212;-1.010;2023-04-26T08:17:47;100897.20;;;8.96;57.97
62946;BME280;52164;52.212;-1.010;2023-04-26T08:20:17;100895.96;;;8.99;57.87
62946;BME280;52164;52.212;-1.010;2023-04-26T08:22:42;100899.23;;;9.03;57.71
62946;BME280;52164;52.212;-1.010;2023-04-26T08:25:08;100894.34;;;9.11;57.49
62946;BME280;52164;52.212;-1.010;2023-04-26T08:27:34;100897.15;;;9.22;57.51
62946;BME280;52164;52.212;-1.010;2023-04-26T08:30:01;100894.59;;;9.33;57.33
62946;BME280;52164;52.212;-1.010;2023-04-26T08:32:26;100894.37;;;9.43;57.12
62946;BME280;52164;52.212;-1.010;2023-04-26T08:34:51;100890.20;;;9.54;56.75
62946;BME280;52164;52.212;-1.010;2023-04-26T08:37:18;100890.47;;;9.63;56.04
62946;BME280;52164;52.212;-1.010;2023-04-26T08:39:44;100887.01;;;9.75;56.09
62946;BME280;52164;52.212;-1.010;2023-04-26T08:42:12;100882.50;;;9.89;56.07
62946;BME280;52164;52.212;-1.010;2023-04-26T08:44:37;100885.61;;;9.98;55.78
62946;BME280;52164;52.212;-1.010;2023-04-26T08:47:05;100890.15;;;10.08;55.71
62946;BME280;52164;52.212;-1.010;2023-04-26T08:49:43;100887.76;;;10.22;55.48
62946;BME280;52164;52.212;-1.010;2023-04-26T08:52:09;100887.05;;;10.43;55.19
62946;BME280;52164;52.212;-1.010;2023-04-26T08:54:36;100886.27;;;10.63;54.32
62946;BME280;52164;52.212;-1.010;2023-04-26T08:57:01;100885.46;;;10.77;53.70
62946;BME280;52164;52.212;-1.010;2023-04-26T08:59:28;100881.59;;;10.88;53.63
62946;BME280;52164;52.212;-1.010;2023-04-26T09:01:55;100876.11;;;10.99;53.08
62946;BME280;52164;52.212;-1.010;2023-04-26T09:04:21;100876.85;;;11.07;53.06
62946;BME280;52164;52.212;-1.010;2023-04-26T09:06:46;100877.95;;;11.19;52.48
62946;BME280;52164;52.212;-1.010;2023-04-26T09:09:13;100883.89;;;11.29;51.89
62946;BME280;52164;52.212;-1.010;2023-04-26T09:11:58;100887.33;;;11.42;51.61
62946;BME280;52164;52.212;-1.010;2023-04-26T09:14:24;100889.31;;;11.58;51.36
62946;BME280;52164;52.212;-1.010;2023-04-26T09:16:49;100887.20;;;11.72;51.26
62946;BME280;52164;52.212;-1.010;2023-04-26T09:19:16;100890.79;;;11.84;50.98
62946;BME280;52164;52.212;-1.010;2023-04-26T09:21:44;100887.77;;;11.93;50.98
62946;BME280;52164;52.212;-1.010;2023-04-26T09:24:11;100884.92;;;11.99;50.65
62946;BME280;52164;52.212;-1.010;2023-04-26T09:26:36;100883.13;;;12.05;50.17
62946;BME280;52164;52.212;-1.010;2023-04-26T09:29:18;100877.41;;;12.07;49.91
62946;BME280;52164;52.212;-1.010;2023-04-26T09:31:45;100879.73;;;12.10;49.32
62946;BME280;52164;52.212;-1.010;2023-04-26T09:34:11;100887.06;;;12.16;49.35
62946;BME280;52164;52.212;-1.010;2023-04-26T09:36:53;100893.15;;;12.26;49.73
62946;BME280;52164;52.212;-1.010;2023-04-26T09:39:32;100886.69;;;12.40;49.12
62946;BME280;52164;52.212;-1.010;2023-04-26T09:41:58;100884.70;;;12.50;48.78
62946;BME280;52164;52.212;-1.010;2023-04-26T09:44:24;100883.23;;;12.64;48.17
62946;BME280;52164;52.212;-1.010;2023-04-26T09:46:57;100881.39;;;12.81;47.65
62946;BME280;52164;52.212;-1.010;2023-04-26T09:49:25;100880.77;;;13.05;47.52
62946;BME280;52164;52.212;-1.010;2023-04-26T09:51:59;100881.20;;;13.30;47.74
62946;BME280;52164;52.212;-1.010;2023-04-26T09:54:36;100878.60;;;13.48;47.09
62946;BME280;52164;52.212;-1.010;2023-04-26T09:57:01;100877.07;;;13.64;46.46
62946;BME280;52164;52.212;-1.010;2023-04-26T09:59:37;100873.60;;;13.73;45.96
62946;BME280;52164;52.212;-1.010;2023-04-26T10:02:03;100870.52;;;13.78;45.82
62946;BME280;52164;52.212;-1.010;2023-04-26T10:04:29;100872.08;;;13.84;45.64
62946;BME280;52164;52.212;-1.010;2023-04-26T10:06:55;100875.23;;;13.94;45.81
62946;BME280;52164;52.212;-1.010;2023-04-26T10:09:21;100866.52;;;14.05;45.66
62946;BME280;52164;52.212;-1.010;2023-04-26T10:11:47;100862.48;;;14.16;44.86
62946;BME280;52164;52.212;-1.010;2023-04-26T10:14:12;100858.80;;;14.24;44.63
62946;BME280;52164;52.212;-1.010;2023-04-26T10:16:38;100853.73;;;14.29;43.90
62946;BME280;52164;52.212;-1.010;2023-04-26T10:19:05;100848.83;;;14.37;44.00
62946;BME280;52164;52.212;-1.010;2023-04-26T10:21:32;100846.19;;;14.48;44.07
62946;BME280;52164;52.212;-1.010;2023-04-26T10:23:59;100845.91;;;14.56;43.22
62946;BME280;52164;52.212;-1.010;2023-04-26T10:26:56;100841.23;;;14.59;43.28
62946;BME280;52164;52.212;-1.010;2023-04-26T10:29:11;100844.20;;;14.67;43.44
62946;BME280;52164;52.212;-1.010;2023-04-26T10:32:03;100842.71;;;14.73;43.70
62946;BME280;52164;52.212;-1.010;2023-04-26T10:34:21;100837.30;;;14.74;42.82
62946;BME280;52164;52.212;-1.010;2023-04-26T10:37:18;100832.59;;;14.77;43.14
62946;BME280;52164;52.212;-1.010;2023-04-26T10:39:34;100829.59;;;14.88;42.73
62946;BME280;52164;52.212;-1.010;2023-04-26T10:42:32;100829.02;;;14.90;42.49
62946;BME280;52164;52.212;-1.010;2023-04-26T10:44:48;100824.36;;;14.88;42.84
62946;BME280;52164;52.212;-1.010;2023-04-26T10:47:30;100826.31;;;15.05;43.19
62946;BME280;52164;52.212;-1.010;2023-04-26T10:50:11;100823.40;;;15.32;42.02
62946;BME280;52164;52.212;-1.010;2023-04-26T10:52:37;100819.10;;;15.56;42.28
62946;BME280;52164;52.212;-1.010;2023-04-26T10:55:05;100815.40;;;15.73;41.20
62946;BME280;52164;52.212;-1.010;2023-04-26T10:57:48;100812.02;;;15.85;39.81
62946;BME280;52164;52.212;-1.010;2023-04-26T11:00:15;100803.62;;;16.02;40.79
62946;BME280;52164;52.212;-1.010;2023-04-26T11:02:52;100803.55;;;16.15;40.27
62946;BME280;52164;52.212;-1.010;2023-04-26T11:05:50;100803.23;;;16.22;40.25
62946;BME280;52164;52.212;-1.010;2023-04-26T11:08:04;100800.36;;;16.22;39.58
62946;BME280;52164;52.212;-1.010;2023-04-26T11:10:30;100793.23;;;16.27;39.28
62946;BME280;52164;52.212;-1.010;2023-04-26T11:12:59;100791.33;;;16.33;39.60
62946;BME280;52164;52.212;-1.010;2023-04-26T11:15:25;100788.67;;;16.40;38.29
62946;BME280;52164;52.212;-1.010;2023-04-26T11:17:50;100788.85;;;16.49;37.53
62946;BME280;52164;52.212;-1.010;2023-04-26T11:20:15;100791.30;;;16.53;37.63
62946;BME280;52164;52.212;-1.010;2023-04-26T11:22:41;100789.55;;;16.51;36.90
62946;BME280;52164;52.212;-1.010;2023-04-26T11:25:06;100786.75;;;16.46;38.05
62946;BME280;52164;52.212;-1.010;2023-04-26T11:27:32;100788.54;;;16.37;39.31
62946;BME280;52164;52.212;-1.010;2023-04-26T11:29:57;100785.33;;;16.27;39.21
62946;BME280;52164;52.212;-1.010;2023-04-26T11:32:26;100788.98;;;16.15;39.02
62946;BME280;52164;52.212;-1.010;2023-04-26T11:34:51;100787.13;;;16.07;38.96
62946;BME280;52164;52.212;-1.010;2023-04-26T11:37:17;100786.51;;;16.01;39.56
62946;BME280;52164;52.212;-1.010;2023-04-26T11:39:44;100786.52;;;16.01;39.90
62946;BME280;52164;52.212;-1.010;2023-04-26T11:42:10;100786.89;;;16.01;39.67
62946;BME280;52164;52.212;-1.010;2023-04-26T11:44:36;100790.83;;;16.01;38.33
62946;BME280;52164;52.212;-1.010;2023-04-26T11:47:02;100794.11;;;15.99;37.05
62946;BME280;52164;52.212;-1.010;2023-04-26T11:49:28;100792.30;;;16.00;37.94
62946;BME280;52164;52.212;-1.010;2023-04-26T11:51:54;100793.30;;;16.04;38.19
62946;BME280;52164;52.212;-1.010;2023-04-26T11:54:27;100795.70;;;16.12;38.50
62946;BME280;52164;52.212;-1.010;2023-04-26T11:56:54;100796.58;;;16.13;38.60
62946;BME280;52164;52.212;-1.010;2023-04-26T11:59:28;100790.05;;;16.05;38.37
62946;BME280;52164;52.212;-1.010;2023-04-26T12:01:55;100791.61;;;15.99;38.13
62946;BME280;52164;52.212;-1.010;2023-04-26T12:04:29;100790.83;;;16.01;37.73
62946;BME280;52164;52.212;-1.010;2023-04-26T12:06:55;100791.96;;;15.98;37.35
62946;BME280;52164;52.212;-1.010;2023-04-26T12:09:25;100792.13;;;15.90;37.12
62946;BME280;52164;52.212;-1.010;2023-04-26T12:11:55;100794.41;;;15.82;37.15
62946;BME280;52164;52.212;-1.010;2023-04-26T12:14:23;100792.40;;;15.72;37.81
62946;BME280;52164;52.212;-1.010;2023-04-26T12:16:48;100795.13;;;15.59;38.25
62946;BME280;52164;52.212;-1.010;2023-04-26T12:19:13;100797.20;;;15.53;38.56
62946;BME280;52164;52.212;-1.010;2023-04-26T12:21:41;100796.08;;;15.56;38.67
62946;BME280;52164;52.212;-1.010;2023-04-26T12:24:06;100796.08;;;15.55;38.22
62946;BME280;52164;52.212;-1.010;2023-04-26T12:26:40;100795.02;;;15.54;38.87
62946;BME280;52164;52.212;-1.010;2023-04-26T12:29:06;100795.63;;;15.50;38.02
62946;BME280;52164;52.212;-1.010;2023-04-26T12:31:32;100797.14;;;15.45;38.76
62946;BME280;52164;52.212;-1.010;2023-04-26T12:33:57;100797.39;;;15.52;39.03
62946;BME280;52164;52.212;-1.010;2023-04-26T12:36:23;100797.96;;;15.50;38.04
62946;BME280;52164;52.212;-1.010;2023-04-26T12:38:48;100796.79;;;15.45;38.53
62946;BME280;52164;52.212;-1.010;2023-04-26T12:41:17;100802.21;;;15.42;38.49
62946;BME280;52164;52.212;-1.010;2023-04-26T12:43:42;100800.16;;;15.47;38.90
62946;BME280;52164;52.212;-1.010;2023-04-26T12:46:07;100797.70;;;15.55;38.25
62946;BME280;52164;52.212;-1.010;2023-04-26T12:48:33;100796.06;;;15.67;37.89